Denville, New Jersey
Current Conditions -  °F | °C
As of 11:45 AM on Thursday 30 Oct 2014 (Local Time) from KMMU Reporting Station
Scattered Clouds Scattered Clouds  
Wind Chill: 55°   Ceiling: Unl
Heat Index: 55°   Visibility: 10mi
Dew Point: 41°   Wind: 10mph
Humidity: 58%   Direction: 330°NNW
Pressure: 30.01"   Gusts: 17mph
Location:  40.89°N, 74.48°W
Report Text: KMMU 301545Z 33009G15KT 10SM SCT035 13/05 A3001
Loading
Personal Weather Stations






























Interactive Weather Map
Tropical Storm Tracking
New forecast layout! Learn more

10-Day Weather Forecast

Advertisements
Track Severe Weather on mobile